Heman, Illinois
Current Conditions -  °F | °C
As of 7:54 PM on Saturday 25 Oct 2014 (Local Time) from KDEC Reporting Station
Clear Clear  
Wind Chill: 67°   Ceiling: Unl
Heat Index: 67°   Visibility: 10mi
Dew Point: 45°   Wind: 7mph
Humidity: 45%   Direction: 290°WNW
Pressure: 30"   Gusts: NA
Location:  39.9621°N, 89.0863°W
Report Text: KDEC 260054Z 29006KT 10SM CLR 19/07 A3000 RMK AO2 SLP157 T01940072
Loading
Personal Weather Stations






























Interactive Weather Map
Tropical Storm Tracking
New forecast layout! Learn more

10-Day Weather Forecast

Advertisements
Track Severe Weather on mobile